Smith Valley, Nevada Weather observations

Data are for 10 minute period ending at time listed.
 Day   Time   Solar   Ave.   Ave.  Ave.  Vector  Max.   Baro.   Total    
  of    of     Rad.   Air    Rel.  Wind   Wind   Wind  Press.  Precip.   
Year   Day            Temp.  Hum.  Speed  Dir.   Gust                    
2015   (PST)  Kw/m2    F      %     mph   deg.    mph    mb.     in.     
-------------------------------------------------------------------------
 108   10:50   0.94   67.0    11    6.1   344    10.2   856.6    0.00 
 108   11:00   0.96   67.4    10    7.0   353    12.6   856.5    0.00 
 108   11:10   0.97   67.0    11    4.5   330    10.9   856.4    0.00 
 108   11:20   0.97   68.3    10    5.8     0    12.9   856.3    0.00 
 108   11:30   0.98   69.1    10    4.8    38    10.3   856.2    0.00 
 108   11:40   0.99   69.9    10    5.1    35    12.0   856.0    0.00 
 108   11:50   0.99   70.1    10    6.5    33    11.6   855.9    0.00 
 108   12:00   0.99   69.4    11    7.4   353    15.0   855.9    0.00 
 108   12:10   0.99   69.4    11    8.2    10    13.2   855.8    0.00 
 108   12:20   0.99   69.1    12    6.2     0    12.1   855.6    0.00 
 108   12:30   0.99   70.2    12    6.1    30    15.8   855.6    0.00 
 108   12:40   0.98   70.4    11    6.0     1    12.3   855.5    0.00 
 108   12:50   0.98   70.8    13    6.3   336    16.4   855.5    0.00 
 108   13:00   0.97   71.9    11    8.5    67    13.4   855.5    0.00 
 108   13:10   0.96   71.8    11    6.5    53    13.1   855.5    0.00 
 108   13:20   0.94   71.9    11    5.1    73    12.7   855.4    0.00 
 108   13:30   0.93   71.6    12    5.3     9    14.8   855.2    0.00 
 108   13:40   0.91   71.6    11    7.9    20    14.0   855.1    0.00 
 108   13:50   0.89   72.3    11    5.4    71    12.6   855.0    0.00 
 108   14:00   0.87   72.7    11    9.1    63    16.5   854.9    0.00 
 108   14:10   0.85   72.2    11    6.5    52    15.2   854.8    0.00 
 108   14:20   0.83   72.2    11    6.7    63    14.0   854.7    0.00 
 108   14:30   0.81   72.0    11    8.2    31    13.9   854.7    0.00 
 108   14:40   0.78   71.8    11    6.3    40    11.5   854.6    0.00 
 108   14:50   0.76   72.2    11    6.8    17    13.7   854.5    0.00 
 108   15:00   0.73   72.1    11    5.4    36    14.5   854.3    0.00 
 108   15:10   0.70   72.0    11    8.8    53    16.6   854.2    0.00 
 108   15:20   0.67   72.4    11    8.0    39    16.8   854.2    0.00 
 108   15:30   0.64   71.7    11    9.2     5    16.2   854.1    0.00 
 108   15:40   0.61   71.9    11    8.6    26    13.6   854.0    0.00 
 108   15:50   0.57   71.9    11    9.6    29    15.1   853.9    0.00 
 108   16:00   0.54   71.4    11    7.9    17    13.7   853.9    0.00 
 108   16:10   0.51   71.3    11    7.4    33    14.2   853.8    0.00 
 108   16:20   0.47   71.3    11   10.2    18    16.2   853.8    0.00 
 108   16:30   0.43   71.0    11    9.2    14    15.2   853.8    0.00 
 108   16:40   0.40   71.1    11    7.4    36    12.9   853.7    0.00 
 108   16:50   0.36   70.8    11    8.1    32    12.6   853.8    0.00 
 108   17:00   0.32   70.7    12    4.5    18     8.7   853.8    0.00 
 108   17:10   0.29   70.7    12    8.6    31    19.1   853.8    0.00 
 108   17:20   0.22   70.2    12    8.4    28    14.6   853.8    0.00 
 108   17:30   0.07   69.0    12    7.8    42    14.2   853.7    0.00 
 108   17:40   0.04   67.9    13    7.1    50    11.2   853.7    0.00 
 108   17:50   0.03   67.3    13    4.6    26     6.9   853.6    0.00 
 108   18:00   0.02   66.8    13    4.6    29     9.1   853.6    0.00 
 108   18:10   0.02   65.6    14    4.3    41     6.9   853.5    0.00 
 108   18:20   0.01   63.7    14    3.2    52     4.6   853.5    0.00 
 108   18:30   0.01   61.8    15    3.0    71     4.5   853.4    0.00 
 108   18:40   0.01   61.2    17    2.0    66     3.4   853.3    0.00 
 108   18:50   0.00   59.4    21    0.1   191     0.5   853.3    0.00 
 108   19:00   0.00   57.7    26    2.4   266     3.9   853.3    0.00 
 108   19:10   0.00   57.4    25    3.3   276     4.8   853.3    0.00 
 108   19:20   0.00   55.4    27    2.3   268     3.2   853.4    0.00 
 108   19:30   0.00   56.2    26    2.1   264     4.5   853.4    0.00 
 108   19:40   0.00   54.9    26    2.0   295     3.8   853.5    0.00 
 108   19:50   0.00   54.5    28    3.6   300     4.8   853.6    0.00 
 108   20:00   0.00   53.9    30    4.9   289     6.6   853.7    0.00 
 108   20:10   0.00   52.8    31    2.0   284     6.5   853.8    0.00 
 108   20:20   0.00   52.1    32    3.3   273     5.3   853.9    0.00 
 108   20:30   0.00   51.8    32    5.0   282     5.8   854.0    0.00 
 108   20:40   0.00   52.5    32    5.5   294     6.5   854.1    0.00 
 108   20:50   0.00   51.5    34    4.1   287     5.3   854.2    0.00 
 108   21:00   0.00   50.1    37    3.5   277     4.8   854.2    0.00 
 108   21:10   0.00   49.5    37    3.6   292     5.8   854.3    0.00 
 108   21:20   0.00   52.4    31    5.2   318     6.1   854.4    0.00 
 108   21:30   0.00   54.6    24    5.2   335     6.6   854.5    0.00 
 108   21:40   0.00   54.1    24    5.2   336     7.2   854.5    0.00 
 108   21:50   0.00   54.0    23    5.9   334     7.2   854.5    0.00 
 108   22:00   0.00   54.1    23    6.3   327     7.8   854.6    0.00 
 108   22:10   0.00   55.2    22    6.8   331     8.8   854.6    0.00 
 108   22:20   0.00   55.1    22    5.4   330     7.5   854.7    0.00 
 108   22:30   0.00   56.1    20    6.3   347     8.3   854.7    0.00 
 108   22:40   0.00   56.8    20    5.4     8     8.2   854.8    0.00 
 108   22:50   0.00   54.8    23    2.5   334     6.1   854.9    0.00 
 108   23:00   0.00   48.5    30    2.2   192     3.9   855.1    0.00 
 108   23:10   0.00   49.8    29    0.7   197     2.9   855.3    0.00 
 108   23:20   0.00   51.9    30    2.2   286     4.1   855.5    0.00 
 108   23:30   0.00   52.7    29    3.7   288     5.1   855.6    0.00 
 108   23:40   0.00   52.4    28    3.1   316     4.6   855.7    0.00 
 108   23:50   0.00   51.9    29    3.2   309     4.5   855.8    0.00 
 109    0:00   0.00   53.7    25    4.0   332     5.3   855.9    0.00 
 109    0:10   0.00   53.3    25    5.6   330     6.7   855.9    0.00 
 109    0:20   0.00   53.2    25    5.3   332     8.8   855.9    0.00 
 109    0:30   0.00   53.7    24    7.4   350    13.0   855.9    0.00 
 109    0:40   0.00   51.7    25    7.0   358    11.0   855.8    0.00 
 109    0:50   0.00   52.8    24    7.6   352    10.4   855.8    0.00 
 109    1:00   0.00   53.3    23    6.8     0    10.9   855.8    0.00 
 109    1:10   0.00   52.1    24    6.4   356     8.3   855.9    0.00 
 109    1:20   0.00   51.3    24    6.2     9    10.3   855.9    0.00 
 109    1:30   0.00   51.8    23    6.4     7     8.7   855.9    0.00 
 109    1:40   0.00   50.6    24    5.7    16     7.6   856.0    0.00 
 109    1:50   0.00   49.9    24    4.4    19     6.9   856.0    0.00 
 109    2:00   0.00   49.2    25    2.7    34     5.3   856.0    0.00 
 109    2:10   0.00   43.3    35    3.2   197     4.2   856.1    0.00 
 109    2:20   0.00   42.6    35    1.4   196     3.5   856.2    0.00 
 109    2:30   0.00   44.5    36    2.0   324     5.1   856.3    0.00 
 109    2:40   0.00   46.2    34    3.1   298     3.9   856.3    0.00 
 109    2:50   0.00   44.2    37    3.2   261     4.2   856.3    0.00 
 109    3:00   0.00   38.5    44    1.8   198     2.5   856.4    0.00 
 109    3:10   0.00   40.1    45    1.9   209     2.6   856.4    0.00 
 109    3:20   0.00   40.1    51    0.6   222     2.2   856.4    0.00 
 109    3:30   0.00   40.4    46    1.6   197     2.6   856.4    0.00 
 109    3:40   0.00   38.5    48    4.6   183     7.2   856.5    0.00 
 109    3:50   0.00   37.4    48    3.9   185     5.8   856.5    0.00 
 109    4:00   0.00   35.5    54    4.4   190     5.3   856.5    0.00 
 109    4:10   0.00   36.8    47    4.5   177     6.3   856.5    0.00 
 109    4:20   0.00   37.8    44    4.3   179     6.4   856.5    0.00 
 109    4:30   0.00   36.3    48    2.8   107     5.0   856.6    0.00 
 109    4:40   0.00   34.2    52    1.5   148     3.7   856.6    0.00 
 109    4:50   0.00   35.4    48    2.1   142     2.9   856.7    0.00 
 109    5:00   0.00   35.7    49    1.7   146     2.8   856.7    0.00 
 109    5:10   0.00   35.1    50    2.5   170     3.5   856.8    0.00 
 109    5:20   0.01   34.9    50    2.8   158     3.9   856.9    0.00 
 109    5:30   0.01   34.9    51    2.2   142     2.9   857.0    0.00 
 109    5:40   0.03   35.7    48    1.9   129     2.5   857.1    0.00 
 109    5:50   0.05   35.0    48    1.5   138     2.0   857.2    0.00 
 109    6:00   0.07   36.2    47    2.3   148     3.8   857.2    0.00 
 109    6:10   0.10   38.0    44    1.1   146     2.4   857.3    0.00 
 109    6:20   0.13   40.4    44    0.5   134     1.9   857.3    0.00 
 109    6:30   0.17   42.5    38    2.5   112     4.4   857.3    0.00 
 109    6:40   0.20   44.0    37    1.1    92     2.9   857.4    0.00 
 109    6:50   0.23   45.8    39    0.5   312     1.3   857.5    0.00 
 109    7:00   0.27   45.9    44    2.4   302     4.2   857.6    0.00 
 109    7:10   0.30   47.1    40    1.7   284     3.1   857.6    0.00 
 109    7:20   0.34   48.6    37    1.4   299     2.6   857.5    0.00 
 109    7:30   0.37   49.6    35    1.3   285     2.7   857.4    0.00 
 109    7:40   0.41   52.1    32    0.9   278     2.3   857.3    0.00 
 109    7:50   0.44   53.3    31    1.4   288     3.5   857.1    0.00 
 109    8:00   0.47   53.3    31    1.7   293     3.4   856.9    0.00 
 109    8:10   0.51   55.0    29    1.8   299     3.6   856.7    0.00 
 109    8:20   0.54   56.5    24    1.7   357     4.2   856.6    0.00 
 109    8:30   0.57   57.4    19    2.6    12     4.3   856.4    0.00 
 109    8:40   0.61   58.1    18    3.5    11    11.0   856.3    0.00 
 109    8:50   0.64   58.3    17    4.1   356     7.6   856.3    0.00 
 109    9:00   0.67   58.9    15    4.0    16     7.5   856.3    0.00 
 109    9:10   0.70   59.1    17    4.1   339     7.0   856.3    0.00 
 109    9:20   0.73   60.1    14    4.0    10     8.6   856.2    0.00 
 109    9:30   0.76   60.1    13    4.0   356     9.3   856.2    0.00 
 109    9:40   0.79   60.9    14    4.4   357    10.1   856.2    0.00 
 109    9:50   0.81   60.9    16    2.7   314     5.6   856.2    0.00 
 109   10:00   0.83   62.1    13    3.6    22     7.7   856.1    0.00 
 109   10:10   0.86   62.8    12    3.8    48     7.9   856.0    0.00 
 109   10:20   0.88   63.3    13    4.5    13     8.8   855.9    0.00 
 109   10:30   0.89   62.9    14    6.4   355     9.8   855.9    0.00 
 109   10:40   0.91   63.9    13    3.9    24    11.5   855.8    0.00 

Return to Smith Valley graphs page.


Western Regional Climate Center,wrcc@dri.edu